Terminal Aerodrome Forecast
Issued by NWS Northern Indiana

Home | Current Version | Previous Version | Text Only | Print | Product List | Glossary On
Versions: 1 2 3 4 5 6 7 8 9 10 11 12 13
922
FTUS43 KIWX 221730
TAFFWA
TAF
KFWA 221730Z 2218/2318 21009KT 6SM BR OVC015
     FM222100 20009KT P6SM OVC025
     FM230600 22010KT 4SM BR OVC008
     FM230900 23008KT 2SM BR OVC008
     FM231500 28006KT 3SM BR OVC015=

USA.gov is the U.S. government's official web portal to all federal, state and local government web resources and services.